createdAt,value
2017-09-01T00:00:02.364Z,12.93
2017-09-01T00:05:02.510Z,12.89
2017-09-01T00:10:02.754Z,12.86
2017-09-01T00:15:03.005Z,12.82
2017-09-01T00:20:02.369Z,12.76
2017-09-01T00:25:02.578Z,12.74
2017-09-01T00:30:02.791Z,12.72
2017-09-01T00:35:02.435Z,12.71
2017-09-01T00:40:02.663Z,12.72
2017-09-01T00:45:02.850Z,12.69
2017-09-01T00:50:02.723Z,12.63
2017-09-01T00:55:02.932Z,12.58
2017-09-01T01:00:02.171Z,12.59
2017-09-01T01:05:02.777Z,12.6
2017-09-01T01:10:02.960Z,12.61
2017-09-01T01:15:02.186Z,12.62
2017-09-01T01:20:02.223Z,12.63
2017-09-01T01:25:02.412Z,12.62
2017-09-01T01:30:02.651Z,12.58
2017-09-01T01:35:02.970Z,12.59
2017-09-01T01:40:02.195Z,12.57
2017-09-01T01:45:02.443Z,12.55
2017-09-01T01:50:02.274Z,12.51
2017-09-01T01:55:02.498Z,12.46
2017-09-01T02:00:02.707Z,12.44
2017-09-01T02:05:02.892Z,12.4
2017-09-01T02:10:03.099Z,12.34
2017-09-01T02:15:02.306Z,12.29
2017-09-01T02:20:02.566Z,12.23
2017-09-01T02:25:02.752Z,12.16
2017-09-01T02:30:02.985Z,12.12
2017-09-01T02:35:02.431Z,12.11
2017-09-01T02:40:02.650Z,12.11
2017-09-01T02:45:02.889Z,12.08
2017-09-01T02:50:03.116Z,12.02
2017-09-01T02:55:02.327Z,11.94
2017-09-01T03:00:02.539Z,11.88
2017-09-01T03:05:03.104Z,11.84
2017-09-01T03:10:02.309Z,11.77
2017-09-01T03:15:02.520Z,11.71
2017-09-01T03:20:02.928Z,11.68
2017-09-01T03:25:03.126Z,11.67
2017-09-01T03:30:02.330Z,11.64
2017-09-01T03:35:02.634Z,11.61
2017-09-01T03:40:02.891Z,11.59
2017-09-01T03:45:03.099Z,11.55
2017-09-01T03:50:02.770Z,11.51
2017-09-01T03:55:03.000Z,11.48
2017-09-01T04:00:02.198Z,11.44
2017-09-01T04:05:02.842Z,11.4
2017-09-01T04:10:03.054Z,11.36
2017-09-01T04:15:02.262Z,11.32
2017-09-01T04:20:02.606Z,11.29
2017-09-01T04:25:02.842Z,11.3
2017-09-01T04:30:03.060Z,11.32
2017-09-01T04:35:02.618Z,11.32
2017-09-01T04:40:02.818Z,11.29
2017-09-01T04:45:03.013Z,11.31
2017-09-01T04:50:02.219Z,11.34
2017-09-01T04:55:02.546Z,11.37
2017-09-01T05:00:02.721Z,11.36
2017-09-01T05:05:02.747Z,11.33
2017-09-01T05:10:02.985Z,11.29
2017-09-01T05:15:02.166Z,11.28
2017-09-01T05:20:02.683Z,11.28
2017-09-01T05:25:02.961Z,11.29
2017-09-01T05:30:02.203Z,11.28
2017-09-01T05:35:02.995Z,11.29
2017-09-01T05:40:02.216Z,11.28
2017-09-01T05:45:02.445Z,11.33
2017-09-01T05:50:02.718Z,11.38
2017-09-01T05:55:02.924Z,11.45
2017-09-01T06:00:02.151Z,11.53
2017-09-01T06:05:02.341Z,11.63
2017-09-01T06:10:02.573Z,11.75
2017-09-01T06:15:02.818Z,11.87
2017-09-01T06:20:02.273Z,11.97
2017-09-01T06:25:02.509Z,12.08
2017-09-01T06:30:02.721Z,12.16
2017-09-01T06:35:02.991Z,12.23
2017-09-01T06:40:02.187Z,12.31
2017-09-01T06:45:02.419Z,12.34
2017-09-01T06:50:03.023Z,12.37
2017-09-01T06:55:02.221Z,12.47
2017-09-01T07:00:02.443Z,12.56
2017-09-01T07:05:02.702Z,12.62
2017-09-01T07:10:02.923Z,12.65
2017-09-01T07:15:03.130Z,12.65
2017-09-01T07:20:02.627Z,12.64
2017-09-01T07:25:02.867Z,12.65
2017-09-01T07:30:03.109Z,12.72
2017-09-01T07:35:03.021Z,12.77
2017-09-01T07:40:02.262Z,12.85
2017-09-01T07:45:02.440Z,12.95
2017-09-01T07:50:02.500Z,13.15
2017-09-01T07:55:02.746Z,13.32
2017-09-01T08:00:02.945Z,13.44
2017-09-01T08:05:03.092Z,13.56
2017-09-01T08:10:02.283Z,13.71
2017-09-01T08:15:02.495Z,13.89
2017-09-01T08:20:02.844Z,14.09
2017-09-01T08:25:03.074Z,14.29
2017-09-01T08:30:02.290Z,14.48
2017-09-01T08:35:03.132Z,14.59
2017-09-01T08:40:02.348Z,14.69
2017-09-01T08:45:02.589Z,14.78
2017-09-01T08:50:02.223Z,14.86
2017-09-01T08:55:02.467Z,15.01
2017-09-01T09:00:02.701Z,15.13
2017-09-01T09:05:02.234Z,15.19
2017-09-01T09:10:02.491Z,15.26
2017-09-01T09:15:02.736Z,15.32
2017-09-01T09:20:03.092Z,15.61
2017-09-01T09:25:02.302Z,15.81
2017-09-01T09:35:02.974Z,16.74
2017-09-01T09:40:02.187Z,17.03
2017-09-01T09:45:02.382Z,17.25
2017-09-01T09:50:02.596Z,17.59
2017-09-01T09:55:02.844Z,17.77
2017-09-01T10:00:03.090Z,17.69
2017-09-01T10:10:02.914Z,17.79
2017-09-01T10:15:03.084Z,17.9
2017-09-01T10:20:02.465Z,17.89
2017-09-01T10:25:02.634Z,18.05
2017-09-01T10:30:02.818Z,18.13
2017-09-01T10:35:02.484Z,18.06
2017-09-01T10:40:02.730Z,17.97
2017-09-01T10:45:02.971Z,17.93
2017-09-01T10:50:02.171Z,17.96
2017-09-01T10:55:02.395Z,17.95
2017-09-01T11:00:02.584Z,17.72
2017-09-01T11:05:02.986Z,17.58
2017-09-01T11:10:02.187Z,17.61
2017-09-01T11:15:02.426Z,17.7
2017-09-01T11:20:02.927Z,17.74
2017-09-01T11:25:02.191Z,17.84
2017-09-01T11:30:02.434Z,17.94
2017-09-01T11:35:02.812Z,18.1
2017-09-01T11:40:03.035Z,18.33
2017-09-01T11:45:02.226Z,18.5
2017-09-01T11:50:02.445Z,18.51
2017-09-01T11:55:02.717Z,18.58
2017-09-01T12:00:02.875Z,18.69
2017-09-01T12:05:02.459Z,18.77
2017-09-01T12:10:02.675Z,18.8
2017-09-01T12:15:02.883Z,18.67
2017-09-01T12:20:02.380Z,18.57
2017-09-01T12:25:02.599Z,18.62
2017-09-01T12:30:02.812Z,18.5
2017-09-01T12:35:02.176Z,18.37
2017-09-01T12:40:02.355Z,18.15
2017-09-01T12:45:02.540Z,18.1
2017-09-01T12:50:02.486Z,18.04
2017-09-01T12:55:02.709Z,18.09
2017-09-01T13:00:02.882Z,18.39
2017-09-01T13:05:02.664Z,18.58
2017-09-01T13:10:02.883Z,18.62
2017-09-01T13:15:03.088Z,18.73
2017-09-01T13:20:02.501Z,18.87
2017-09-01T13:25:02.741Z,18.78
2017-09-01T13:30:02.929Z,18.67
2017-09-01T13:35:03.154Z,18.64
2017-09-01T13:40:02.349Z,18.55
2017-09-01T13:45:02.646Z,18.52
2017-09-01T13:50:02.621Z,18.53
2017-09-01T13:55:02.804Z,18.54
2017-09-01T14:00:03.007Z,18.49
2017-09-01T14:05:02.307Z,18.44
2017-09-01T14:10:02.508Z,18.44
2017-09-01T14:15:02.721Z,18.51
2017-09-01T14:20:02.611Z,18.62
2017-09-01T14:25:03.022Z,18.62
2017-09-01T14:30:02.231Z,18.55
2017-09-01T14:35:02.451Z,18.55
2017-09-01T14:40:02.695Z,18.46
2017-09-01T14:45:02.890Z,18.33
2017-09-01T14:50:02.499Z,18.2
2017-09-01T14:55:02.665Z,18.1
2017-09-01T15:00:02.870Z,18.05
2017-09-01T15:05:02.311Z,17.98
2017-09-01T15:10:02.536Z,17.93
2017-09-01T15:15:02.739Z,17.94
2017-09-01T15:20:02.587Z,17.9
2017-09-01T15:25:02.800Z,17.83
2017-09-01T15:30:03.014Z,17.77
2017-09-01T15:35:02.547Z,17.78
2017-09-01T15:40:02.820Z,17.8
2017-09-01T15:45:03.030Z,17.81
2017-09-01T15:50:02.877Z,17.83
2017-09-01T15:55:03.147Z,17.95
2017-09-01T16:00:02.380Z,17.99
2017-09-01T16:05:02.304Z,17.96
2017-09-01T16:10:02.540Z,17.99
2017-09-01T16:15:02.786Z,17.98
2017-09-01T16:20:03.186Z,18.02
2017-09-01T16:25:02.452Z,18.07
2017-09-01T16:30:02.669Z,18.08
2017-09-01T16:35:03.008Z,18.04
2017-09-01T16:40:02.254Z,17.97
2017-09-01T16:45:02.540Z,17.98
2017-09-01T16:50:02.736Z,18.04
2017-09-01T16:55:02.957Z,18.02
2017-09-01T17:00:02.671Z,17.88
2017-09-01T17:05:02.627Z,17.75
2017-09-01T17:10:02.818Z,17.63
2017-09-01T17:15:03.057Z,17.51
2017-09-01T17:20:02.639Z,17.4
2017-09-01T17:25:02.867Z,17.26
2017-09-01T17:30:03.055Z,17.14
2017-09-01T17:35:02.287Z,16.99
2017-09-01T17:40:02.476Z,16.86
2017-09-01T17:45:02.713Z,16.7
2017-09-01T17:50:02.569Z,16.58
2017-09-01T17:55:02.766Z,16.43
2017-09-01T18:00:02.978Z,16.25
2017-09-01T18:05:02.190Z,16.05
2017-09-01T18:10:02.378Z,15.89
2017-09-01T18:15:02.593Z,15.7
2017-09-01T18:20:02.272Z,15.51
2017-09-01T18:25:02.463Z,15.29
2017-09-01T18:30:02.661Z,15.11
2017-09-01T18:35:02.406Z,14.96
2017-09-01T18:40:02.652Z,14.81
2017-09-01T18:45:02.883Z,14.68
2017-09-01T18:50:02.415Z,14.56
2017-09-01T18:55:02.642Z,14.43
2017-09-01T19:00:02.829Z,14.3
2017-09-01T19:05:02.578Z,14.19
2017-09-01T19:10:02.831Z,14.07
2017-09-01T19:15:03.074Z,14.01
2017-09-01T19:20:02.394Z,13.94
2017-09-01T19:25:02.583Z,13.85
2017-09-01T19:30:02.775Z,13.77
2017-09-01T19:35:02.694Z,13.69
2017-09-01T19:40:02.916Z,13.62
2017-09-01T19:45:03.132Z,13.54
2017-09-01T19:50:02.534Z,13.5
2017-09-01T19:55:02.785Z,13.46
2017-09-01T20:00:02.997Z,13.4
2017-09-01T20:05:02.917Z,13.36
2017-09-01T20:10:03.105Z,13.33
2017-09-01T20:15:02.345Z,13.3
2017-09-01T20:20:02.674Z,13.3
2017-09-01T20:25:02.879Z,13.27
2017-09-01T20:30:03.070Z,13.3
2017-09-01T20:35:03.026Z,13.29
2017-09-01T20:40:02.248Z,13.24
2017-09-01T20:45:02.449Z,13.24
2017-09-01T20:50:02.206Z,13.3
2017-09-01T20:55:02.414Z,13.32
2017-09-01T21:00:02.591Z,13.34
2017-09-01T21:05:02.278Z,13.3
2017-09-01T21:10:02.529Z,13.3
2017-09-01T21:15:02.723Z,13.33
2017-09-01T21:20:02.183Z,13.33
2017-09-01T21:25:02.414Z,13.36
2017-09-01T21:30:02.640Z,13.35
2017-09-01T21:35:02.926Z,13.34
2017-09-01T21:40:03.141Z,13.34
2017-09-01T21:45:02.380Z,13.35
2017-09-01T21:50:02.253Z,13.39
2017-09-01T21:55:02.460Z,13.39
2017-09-01T22:00:03.028Z,13.41
2017-09-01T22:05:02.206Z,13.44
2017-09-01T22:10:02.557Z,13.43
2017-09-01T22:15:02.934Z,13.43
2017-09-01T22:20:02.504Z,13.43
2017-09-01T22:25:02.883Z,13.41
2017-09-01T22:30:02.219Z,13.39
2017-09-01T22:35:02.361Z,13.36
2017-09-01T22:40:02.752Z,13.37
2017-09-01T22:45:03.152Z,13.39
2017-09-01T22:50:02.523Z,13.37
2017-09-01T22:55:02.932Z,13.36
2017-09-01T23:00:02.290Z,13.32
2017-09-01T23:05:03.122Z,13.29
2017-09-01T23:10:02.333Z,13.25
2017-09-01T23:15:02.555Z,13.22
2017-09-01T23:20:02.881Z,13.19
2017-09-01T23:25:03.072Z,13.17
2017-09-01T23:30:02.290Z,13.1
2017-09-01T23:35:02.512Z,13.12
2017-09-01T23:40:02.726Z,13.07
2017-09-01T23:45:02.957Z,13.05
2017-09-01T23:50:03.030Z,12.99
2017-09-01T23:55:02.227Z,12.96
